createdAt,value
2023-02-16T00:10:12.733Z,70.00
2023-02-16T00:54:00.975Z,64.07
2023-02-16T00:59:08.888Z,70.03
2023-02-16T01:04:17.039Z,69.85
2023-02-16T01:09:40.272Z,66.38
2023-02-16T01:14:45.849Z,76.05
2023-02-16T01:19:47.509Z,72.60
2023-02-16T01:24:51.337Z,79.30
2023-02-16T01:29:53.970Z,72.93
2023-02-16T01:34:55.664Z,74.72
2023-02-16T01:39:57.139Z,73.72
2023-02-16T01:45:06.552Z,72.13
2023-02-16T01:50:46.748Z,72.88
2023-02-16T01:55:53.850Z,68.80
2023-02-16T02:01:00.994Z,62.80
2023-02-16T02:06:06.148Z,63.20
2023-02-16T02:11:28.109Z,70.30
2023-02-16T02:16:29.825Z,64.10
2023-02-16T02:22:08.390Z,72.32
2023-02-16T02:27:38.836Z,71.15
2023-02-16T02:33:07.828Z,71.32
2023-02-16T02:38:21.881Z,77.60
2023-02-16T02:43:37.549Z,70.43
2023-02-16T02:48:42.544Z,70.75
2023-02-16T02:54:25.703Z,72.20
2023-02-16T02:59:53.597Z,70.10
2023-02-16T03:04:57.630Z,81.63
2023-02-16T03:10:22.073Z,71.40
2023-02-16T03:15:29.060Z,65.93
2023-02-16T03:26:19.074Z,72.07
2023-02-16T03:31:27.556Z,76.45
2023-02-16T03:36:33.355Z,67.30
2023-02-16T03:41:59.503Z,70.15
2023-02-16T03:47:05.375Z,68.15
2023-02-16T03:52:09.692Z,77.65
2023-02-16T03:57:11.367Z,74.10
2023-02-16T04:02:13.130Z,77.60
2023-02-16T04:07:23.550Z,73.32
2023-02-16T04:12:36.696Z,83.68
2023-02-16T04:17:46.989Z,82.15
2023-02-16T04:23:02.014Z,67.63
2023-02-16T04:28:11.026Z,74.25
2023-02-16T04:33:15.887Z,69.70
2023-02-16T04:38:22.735Z,66.05
2023-02-16T04:43:26.018Z,77.32
2023-02-16T04:48:33.092Z,72.97
2023-02-16T04:53:40.481Z,74.05
2023-02-16T04:59:05.124Z,71.20
2023-02-16T05:04:07.008Z,77.38
2023-02-16T05:09:11.742Z,71.90
2023-02-16T05:14:42.583Z,69.85
2023-02-16T05:19:47.254Z,74.18
2023-02-16T05:24:49.580Z,77.85
2023-02-16T05:29:53.907Z,77.63
2023-02-16T05:34:55.394Z,79.72
2023-02-16T05:39:57.195Z,75.90
2023-02-16T05:44:58.683Z,78.88
2023-02-16T05:50:01.960Z,78.55
2023-02-16T05:55:10.678Z,75.47
2023-02-16T06:00:19.340Z,76.65
2023-02-16T06:05:32.332Z,75.55
2023-02-16T06:10:38.504Z,74.75
2023-02-16T06:15:46.691Z,75.57
2023-02-16T06:20:51.259Z,69.60
2023-02-16T06:25:58.710Z,79.57
2023-02-16T06:31:00.305Z,79.43
2023-02-16T06:36:02.352Z,78.18
2023-02-16T06:41:29.548Z,79.75
2023-02-16T06:46:35.542Z,79.18
2023-02-16T06:51:46.380Z,79.10
2023-02-16T06:58:10.373Z,78.55
2023-02-16T07:03:16.593Z,83.35
2023-02-16T07:28:45.952Z,81.07
2023-02-16T07:34:21.767Z,75.72
2023-02-16T07:46:02.711Z,79.68
2023-02-16T07:51:16.034Z,76.75
2023-02-16T07:56:28.861Z,75.45
2023-02-16T08:01:42.724Z,80.55
2023-02-16T08:17:44.727Z,72.88
2023-02-16T08:23:04.292Z,78.00
2023-02-16T08:28:07.164Z,81.05
2023-02-16T08:46:15.820Z,74.60
2023-02-16T08:51:41.443Z,77.18
2023-02-16T08:57:03.741Z,64.57
2023-02-16T09:02:06.080Z,63.22
2023-02-16T09:07:18.263Z,67.05
2023-02-16T09:12:22.951Z,64.13
2023-02-16T09:17:29.459Z,73.13
2023-02-16T09:22:38.096Z,69.45
2023-02-16T09:27:57.981Z,67.53
2023-02-16T09:33:09.012Z,62.78
2023-02-16T09:38:19.294Z,54.80
2023-02-16T09:44:10.388Z,72.82
2023-02-16T09:49:44.074Z,57.97
2023-02-16T09:54:50.917Z,64.25
2023-02-16T10:05:17.475Z,62.42
2023-02-16T10:10:26.083Z,67.32
2023-02-16T10:15:32.365Z,64.05
2023-02-16T10:20:43.707Z,66.90
2023-02-16T10:26:01.561Z,63.35
2023-02-16T10:31:13.342Z,63.70
2023-02-16T10:36:32.090Z,69.45
2023-02-16T10:42:10.999Z,65.97
2023-02-16T10:47:39.493Z,67.72
2023-02-16T10:52:43.924Z,63.97
2023-02-16T10:58:06.033Z,69.25
2023-02-16T11:03:13.210Z,61.97
2023-02-16T11:08:17.633Z,67.00
2023-02-16T11:13:33.022Z,66.38
2023-02-16T11:18:43.549Z,58.88
2023-02-16T11:24:02.823Z,64.30
2023-02-16T11:29:19.474Z,64.00
2023-02-16T11:34:33.218Z,58.70
2023-02-16T11:39:39.394Z,71.25
2023-02-16T11:44:57.632Z,81.85
2023-02-16T11:50:23.739Z,71.78
2023-02-16T11:55:36.547Z,76.30
2023-02-16T12:01:02.067Z,77.47
2023-02-16T12:06:12.007Z,74.50
2023-02-16T12:11:25.527Z,74.47
2023-02-16T12:17:02.324Z,73.72
2023-02-16T12:22:15.186Z,69.25
2023-02-16T12:27:25.338Z,75.38
2023-02-16T12:32:52.310Z,72.35
2023-02-16T12:37:56.963Z,74.38
2023-02-16T12:43:32.309Z,73.47
2023-02-16T12:48:51.590Z,67.20
2023-02-16T12:54:22.634Z,72.72
2023-02-16T12:59:46.230Z,65.00
2023-02-16T13:04:56.754Z,63.55
2023-02-16T13:10:25.233Z,66.35
2023-02-16T13:15:42.475Z,64.97
2023-02-16T13:20:49.614Z,59.33
2023-02-16T13:26:18.043Z,55.33
2023-02-16T13:31:54.606Z,56.53
2023-02-16T13:37:06.051Z,54.57
2023-02-16T13:42:42.761Z,66.78
2023-02-16T13:47:49.379Z,55.70
2023-02-16T13:52:53.443Z,58.55
2023-02-16T13:58:01.287Z,55.72
2023-02-16T14:03:12.265Z,52.58
2023-02-16T14:08:19.004Z,52.25
2023-02-16T14:13:38.596Z,48.63
2023-02-16T14:18:43.261Z,47.75
2023-02-16T14:23:46.261Z,52.50
2023-02-16T14:29:08.235Z,47.95
2023-02-16T14:34:19.435Z,44.10
2023-02-16T14:39:22.864Z,50.85
2023-02-16T14:45:03.525Z,47.33
2023-02-16T14:50:17.214Z,40.63
2023-02-16T14:56:01.470Z,42.75
2023-02-16T15:01:06.109Z,38.17
2023-02-16T15:06:11.492Z,39.60
2023-02-16T15:11:17.141Z,37.25
2023-02-16T15:16:21.038Z,37.67
2023-02-16T15:21:28.558Z,43.05
2023-02-16T15:26:35.453Z,32.08
2023-02-16T15:31:38.263Z,38.92
2023-02-16T15:36:42.878Z,32.40
2023-02-16T15:41:49.529Z,32.75
2023-02-16T15:51:57.802Z,31.55
2023-02-16T15:57:21.787Z,29.50
2023-02-16T16:02:39.770Z,34.30
2023-02-16T16:07:41.848Z,32.63
2023-02-16T16:12:44.505Z,31.13
2023-02-16T16:17:46.751Z,32.05
2023-02-16T16:22:59.702Z,31.63
2023-02-16T16:28:10.306Z,29.00
2023-02-16T16:33:13.971Z,34.35
2023-02-16T16:38:27.959Z,29.52
2023-02-16T16:43:37.245Z,31.27
2023-02-16T16:48:46.667Z,32.78
2023-02-16T16:54:05.592Z,31.92
2023-02-16T16:59:07.702Z,35.55
2023-02-16T17:04:10.797Z,36.55
2023-02-16T17:09:15.833Z,38.00
2023-02-16T17:14:19.968Z,40.05
2023-02-16T17:19:23.069Z,38.97
2023-02-16T17:24:25.462Z,31.73
2023-02-16T17:29:26.946Z,37.08
2023-02-16T17:34:32.482Z,35.17
2023-02-16T17:39:35.144Z,40.83
2023-02-16T17:44:36.597Z,48.42
2023-02-16T17:49:38.627Z,45.33
2023-02-16T17:54:40.142Z,47.30
2023-02-16T17:59:42.203Z,47.15
2023-02-16T18:04:43.845Z,41.05
2023-02-16T18:09:46.992Z,40.15
2023-02-16T18:14:48.484Z,41.70
2023-02-16T18:19:50.005Z,38.35
2023-02-16T18:24:51.596Z,44.22
2023-02-16T18:29:53.250Z,43.95
2023-02-16T18:35:00.960Z,45.28
2023-02-16T18:40:03.035Z,45.80
2023-02-16T18:45:06.175Z,42.97
2023-02-16T18:50:08.112Z,45.47
2023-02-16T18:55:10.905Z,41.10
2023-02-16T19:00:14.838Z,42.30
2023-02-16T19:05:16.770Z,32.97
2023-02-16T19:10:19.441Z,36.40
2023-02-16T19:15:21.065Z,35.72
2023-02-16T19:20:23.998Z,36.35
2023-02-16T19:25:26.852Z,42.72
2023-02-16T19:30:32.126Z,37.40
2023-02-16T19:35:38.244Z,36.20
2023-02-16T19:40:44.039Z,30.35
2023-02-16T19:45:49.034Z,37.97
2023-02-16T19:51:20.627Z,33.45
2023-02-16T19:56:36.680Z,34.90
2023-02-16T20:01:44.021Z,41.10
2023-02-16T20:06:57.917Z,40.80
2023-02-16T20:12:04.729Z,32.15
2023-02-16T20:17:06.711Z,32.72
2023-02-16T20:22:14.039Z,27.05
2023-02-16T20:27:18.311Z,30.88
2023-02-16T20:32:24.835Z,33.60
2023-02-16T20:37:39.111Z,32.13
2023-02-16T20:42:40.791Z,31.27
2023-02-16T20:47:50.306Z,34.15
2023-02-16T20:52:54.463Z,32.97
2023-02-16T20:58:00.357Z,32.88
2023-02-16T21:03:19.030Z,34.27
2023-02-16T21:08:20.894Z,33.78
2023-02-16T21:13:24.683Z,37.80
2023-02-16T21:18:26.901Z,36.30
2023-02-16T21:23:36.256Z,29.33
2023-02-16T21:34:07.756Z,36.38
2023-02-16T21:39:09.325Z,34.33
2023-02-16T21:44:17.857Z,32.72
2023-02-16T21:49:21.448Z,29.05
2023-02-16T21:54:42.951Z,32.45
2023-02-16T21:59:50.478Z,26.13
2023-02-16T22:04:53.259Z,26.85
2023-02-16T22:09:54.860Z,31.75
2023-02-16T22:14:56.491Z,19.85
2023-02-16T22:20:09.413Z,24.38
2023-02-16T22:25:13.578Z,11.40
2023-02-16T22:30:17.802Z,23.33
2023-02-16T22:35:22.507Z,18.80
2023-02-16T22:40:24.025Z,19.05
2023-02-16T22:45:27.051Z,15.00
2023-02-16T22:50:30.423Z,13.02
2023-02-16T22:55:32.090Z,15.65
2023-02-16T23:00:35.694Z,12.50
2023-02-16T23:05:37.841Z,15.82
2023-02-16T23:10:59.884Z,14.05
2023-02-16T23:16:10.847Z,11.55
2023-02-16T23:21:24.148Z,15.52
2023-02-16T23:26:33.396Z,16.17
2023-02-16T23:31:39.549Z,17.45
2023-02-16T23:36:41.606Z,14.90
2023-02-16T23:41:45.163Z,14.60
2023-02-16T23:46:46.820Z,18.73
2023-02-16T23:51:49.438Z,13.45
2023-02-16T23:56:52.781Z,17.10
